Time;durP1;ratioP1;P1;durP2;ratioP2;P2;SDS_P1;SDS_P2;PMS_P1;PMS_P2;Temp;Humidity;BMP_temperature;BMP_pressure;BME280_temperature;BME280_humidity;BME280_pressure;Samples;Min_cycle;Max_cycle;Signal;HPM_P1;HPM_P2
2022/11/01 00:01:50;;;;;;;24.83;16.52;;;12.30;99.90;;;;;;5073281;28;20067;-74
2022/11/01 00:04:16;;;;;;;27.80;16.50;;;12.40;99.90;;;;;;5076477;28;20048;-74
2022/11/01 00:06:41;;;;;;;27.20;17.02;;;12.30;99.90;;;;;;5059049;28;20460;-75
2022/11/01 00:09:07;;;;;;;24.65;17.00;;;12.50;99.90;;;;;;5059072;28;20052;-74
2022/11/01 00:11:33;;;;;;;30.58;17.02;;;12.40;99.90;;;;;;5077204;28;20471;-76
2022/11/01 00:13:58;;;;;;;24.88;16.08;;;12.30;99.90;;;;;;5076774;28;20128;-74
2022/11/01 00:16:24;;;;;;;27.63;16.85;;;12.30;99.90;;;;;;5042766;28;20053;-75
2022/11/01 00:18:49;;;;;;;25.95;17.08;;;12.40;99.90;;;;;;5075492;28;20465;-75
2022/11/01 00:21:15;;;;;;;24.67;16.75;;;12.60;99.90;;;;;;5076244;28;20059;-74
2022/11/01 00:23:41;;;;;;;21.00;14.55;;;12.60;99.90;;;;;;5059268;28;20045;-74
2022/11/01 00:26:08;;;;;;;26.83;15.85;;;12.40;99.90;;;;;;5076318;28;20049;-74
2022/11/01 00:28:34;;;;;;;25.90;15.50;;;12.40;99.90;;;;;;5058898;28;20048;-74
2022/11/01 00:31:00;;;;;;;26.27;15.43;;;12.40;99.90;;;;;;5076380;28;20084;-72
2022/11/01 00:33:26;;;;;;;24.00;15.15;;;12.40;99.90;;;;;;5063445;28;20162;-75
2022/11/01 00:35:52;;;;;;;23.17;14.90;;;12.30;99.90;;;;;;5055782;28;20454;-75
2022/11/01 00:38:18;;;;;;;23.50;15.38;;;12.40;99.90;;;;;;5056167;28;20045;-73
2022/11/01 00:40:44;;;;;;;26.30;15.40;;;12.60;99.90;;;;;;5039281;28;20048;-73
2022/11/01 00:43:11;;;;;;;23.65;14.48;;;12.30;99.90;;;;;;5037230;28;20053;-75
2022/11/01 00:45:37;;;;;;;26.20;15.27;;;12.40;99.90;;;;;;5056106;28;20047;-76
2022/11/01 00:48:03;;;;;;;23.15;14.85;;;12.40;99.90;;;;;;5055687;28;20043;-74
2022/11/01 00:50:28;;;;;;;21.17;14.02;;;12.40;99.90;;;;;;5056556;28;20436;-75
2022/11/01 00:52:54;;;;;;;20.75;13.93;;;12.60;99.90;;;;;;5057772;28;20048;-75
2022/11/01 00:55:20;;;;;;;22.17;13.98;;;12.40;99.90;;;;;;5075440;28;20040;-75
2022/11/01 00:57:46;;;;;;;22.40;13.70;;;12.50;99.90;;;;;;5057928;28;20453;-74
2022/11/01 01:00:13;;;;;;;20.75;13.90;;;12.70;99.90;;;;;;5075814;28;20053;-74
2022/11/01 01:02:39;;;;;;;21.92;13.88;;;12.60;99.90;;;;;;5064245;28;20140;-75
2022/11/01 01:05:06;;;;;;;25.13;13.52;;;12.60;99.90;;;;;;5058774;28;20041;-74
2022/11/01 01:07:32;;;;;;;19.25;12.60;;;12.60;99.90;;;;;;5075494;28;20123;-74
2022/11/01 01:09:57;;;;;;;19.60;12.73;;;12.90;99.90;;;;;;5075339;28;20135;-74
2022/11/01 01:12:23;;;;;;;23.92;13.25;;;12.60;99.90;;;;;;5075683;28;20044;-74
2022/11/01 01:14:49;;;;;;;21.92;12.68;;;12.70;99.90;;;;;;5075607;28;20044;-74
2022/11/01 01:17:14;;;;;;;21.65;12.45;;;12.70;99.90;;;;;;5070991;28;20041;-74
2022/11/01 01:19:40;;;;;;;19.63;12.45;;;12.90;99.90;;;;;;5037723;28;20350;-75
2022/11/01 01:22:06;;;;;;;20.30;11.93;;;12.70;99.90;;;;;;5055666;28;20040;-75
2022/11/01 01:24:32;;;;;;;21.17;11.95;;;13.00;99.90;;;;;;5075584;28;20040;-76
2022/11/01 01:26:58;;;;;;;26.88;11.48;;;12.80;99.90;;;;;;5075187;28;20041;-76
2022/11/01 01:29:24;;;;;;;22.73;12.10;;;12.90;99.90;;;;;;5075380;28;20326;-74
2022/11/01 01:31:50;;;;;;;20.17;11.35;;;12.90;99.90;;;;;;5057376;28;20163;-74
2022/11/01 01:34:16;;;;;;;15.60;10.27;;;13.00;99.90;;;;;;5075112;28;20058;-73
2022/11/01 01:36:42;;;;;;;18.60;10.95;;;13.00;99.90;;;;;;5057173;28;20106;-74
2022/11/01 01:39:08;;;;;;;18.67;10.93;;;13.10;99.90;;;;;;5054996;28;20045;-74
2022/11/01 01:44:40;;;;;;;18.85;10.63;;;13.10;99.90;;;;;;5055496;28;20052;-74
2022/11/01 01:47:07;;;;;;;20.63;10.45;;;13.20;99.90;;;;;;5037169;28;20060;-75
2022/11/01 01:49:32;;;;;;;17.42;10.32;;;13.20;99.90;;;;;;5056413;28;20114;-76
2022/11/01 01:51:58;;;;;;;18.23;10.07;;;13.60;99.90;;;;;;5075411;28;20040;-76
2022/11/01 01:54:23;;;;;;;20.38;10.00;;;13.30;99.90;;;;;;5077104;28;20042;-74
2022/11/01 01:56:49;;;;;;;26.85;10.05;;;13.50;99.90;;;;;;5061822;28;20449;-75
2022/11/01 01:59:15;;;;;;;18.17;9.65;;;13.40;99.90;;;;;;5078455;28;20063;-74
2022/11/01 02:01:40;;;;;;;20.80;10.50;;;13.40;99.90;;;;;;5078853;28;20040;-77
2022/11/01 02:04:30;;;;;;;17.23;9.60;;;13.40;99.90;;;;;;5078310;28;20089;-76
2022/11/01 02:06:58;;;;;;;17.25;9.93;;;13.50;99.90;;;;;;5059034;28;20091;-75
2022/11/01 02:09:24;;;;;;;19.33;10.48;;;13.50;99.90;;;;;;5058624;28;20136;-75
2022/11/01 02:11:49;;;;;;;17.40;9.70;;;13.60;99.90;;;;;;5042121;28;20119;-74
2022/11/01 02:14:16;;;;;;;19.15;10.05;;;13.50;99.90;;;;;;5058762;28;20045;-75
2022/11/01 02:17:00;;;;;;;18.45;9.57;;;13.50;99.90;;;;;;5058495;28;20481;-75
2022/11/01 02:19:48;;;;;;;18.85;9.68;;;13.50;99.90;;;;;;5058679;28;20159;-73
2022/11/01 02:22:51;;;;;;;19.48;9.73;;;13.50;99.90;;;;;;5058814;28;20045;-73
2022/11/01 02:25:25;;;;;;;17.03;8.83;;;13.60;99.90;;;;;;5065823;28;20047;-74
2022/11/01 02:27:58;;;;;;;;;;;13.60;99.90;;;;;;5078608;28;20048;-73
2022/11/01 02:30:33;;;;;;;19.90;9.65;;;13.80;99.90;;;;;;5078284;28;19920;-76
2022/11/01 02:33:30;;;;;;;17.15;9.43;;;13.60;99.90;;;;;;5078324;28;20132;-74
2022/11/01 02:36:15;;;;;;;17.23;9.68;;;13.70;99.90;;;;;;5056701;28;20061;-74
2022/11/01 02:39:00;;;;;;;18.50;8.98;;;13.70;99.90;;;;;;5078684;28;20334;-74
2022/11/01 02:41:38;;;;;;;16.52;9.35;;;13.70;99.90;;;;;;5058601;28;20053;-75
2022/11/01 02:44:14;;;;;;;14.38;8.98;;;13.70;99.90;;;;;;5058270;28;20132;-73
2022/11/01 02:47:01;;;;;;;16.67;9.30;;;13.80;99.90;;;;;;5041241;28;20138;-74
2022/11/01 02:49:29;;;;;;;15.18;9.05;;;13.70;99.90;;;;;;5058512;28;20045;-73
2022/11/01 02:51:56;;;;;;;22.77;9.18;;;13.80;99.90;;;;;;5058082;28;20114;-74
2022/11/01 02:54:29;;;;;;;16.85;9.60;;;13.80;99.90;;;;;;5044769;28;20052;-75
2022/11/01 02:57:01;;;;;;;20.58;9.65;;;13.80;99.90;;;;;;5059866;28;20076;-73
2022/11/01 02:59:28;;;;;;;15.18;8.55;;;13.80;99.90;;;;;;5077309;28;20060;-74
2022/11/01 03:02:13;;;;;;;20.55;9.48;;;13.80;99.90;;;;;;5060343;28;20127;-74
2022/11/01 03:04:38;;;;;;;17.38;9.60;;;14.20;99.90;;;;;;5077692;28;20040;-74
2022/11/01 03:07:10;;;;;;;18.05;9.35;;;13.80;99.90;;;;;;5076958;28;20476;-74
2022/11/01 03:09:36;;;;;;;20.40;9.00;;;13.80;99.90;;;;;;5077834;28;20088;-76
2022/11/01 03:12:11;;;;;;;21.23;9.15;;;13.80;99.90;;;;;;5040434;28;20041;-74
2022/11/01 03:14:59;;;;;;;15.25;8.48;;;13.70;99.90;;;;;;5057670;28;20045;-74
2022/11/01 03:17:31;;;;;;;24.27;9.13;;;13.80;99.90;;;;;;5057703;28;20048;-74
2022/11/01 03:20:03;;;;;;;18.90;8.93;;;13.80;99.90;;;;;;5057808;28;20438;-73
2022/11/01 03:22:33;;;;;;;18.98;9.35;;;13.80;99.90;;;;;;5057284;28;20037;-74
2022/11/01 03:25:41;;;;;;;18.05;8.85;;;13.80;99.90;;;;;;5044740;28;20041;-74
2022/11/01 03:28:21;;;;;;;16.70;8.60;;;13.80;99.90;;;;;;5077996;28;20058;-74
2022/11/01 03:30:58;;;;;;;14.63;8.65;;;13.80;99.90;;;;;;5060131;28;20119;-76
2022/11/01 03:33:25;;;;;;;15.55;8.93;;;13.80;99.90;;;;;;5077173;28;20041;-74
2022/11/01 03:35:55;;;;;;;18.65;8.68;;;14.00;99.90;;;;;;5077554;28;20059;-73
2022/11/01 03:38:25;;;;;;;16.20;8.75;;;14.20;99.90;;;;;;5059438;28;20110;-75
2022/11/01 03:40:56;;;;;;;16.70;8.27;;;14.00;99.90;;;;;;5063022;28;20052;-75
2022/11/01 03:43:24;;;;;;;14.90;9.07;;;14.00;99.90;;;;;;5039877;28;20111;-75
2022/11/01 03:45:50;;;;;;;14.48;8.70;;;14.00;99.90;;;;;;5056956;28;20045;-75
2022/11/01 03:48:16;;;;;;;13.07;8.23;;;14.00;99.90;;;;;;5057145;28;20106;-72
2022/11/01 03:50:49;;;;;;;15.52;8.00;;;14.10;99.90;;;;;;5057016;28;20461;-73
2022/11/01 03:53:15;;;;;;;17.52;8.63;;;14.10;99.90;;;;;;5056444;28;20045;-74
2022/11/01 03:55:41;;;;;;;17.40;8.25;;;14.10;99.90;;;;;;5053341;28;20479;-73
2022/11/01 03:58:06;;;;;;;17.05;8.35;;;14.20;99.90;;;;;;5076401;28;20045;-76
2022/11/01 04:00:44;;;;;;;14.57;8.07;;;14.10;99.90;;;;;;5076601;28;20107;-76
2022/11/01 04:03:11;;;;;;;16.35;8.05;;;14.10;99.90;;;;;;5059658;28;20243;-75
2022/11/01 04:05:39;;;;;;;14.55;9.07;;;14.10;99.90;;;;;;5076841;28;20080;-75
2022/11/01 04:08:06;;;;;;;18.73;8.80;;;14.00;99.90;;;;;;5059200;28;20497;-74
2022/11/01 04:10:31;;;;;;;16.05;7.53;;;13.90;99.90;;;;;;5042969;28;20131;-74
2022/11/01 04:12:58;;;;;;;14.45;7.60;;;13.90;99.90;;;;;;5056738;28;20124;-75
2022/11/01 04:21:08;;;;;;;14.40;8.20;;;13.80;99.90;;;;;;5056128;28;20056;-75
2022/11/01 04:23:34;;;;;;;17.55;8.23;;;13.80;99.90;;;;;;5057437;28;20080;-74
2022/11/01 04:26:01;;;;;;;21.02;8.15;;;13.80;99.90;;;;;;5075906;28;20028;-76
2022/11/01 04:28:27;;;;;;;14.45;7.85;;;13.70;99.90;;;;;;5076307;28;20360;-74
2022/11/01 04:30:53;;;;;;;17.77;7.72;;;13.90;99.90;;;;;;5058273;28;20048;-74
2022/11/01 04:33:18;;;;;;;17.80;7.78;;;13.90;99.90;;;;;;5075864;28;20115;-72
2022/11/01 04:35:44;;;;;;;20.90;8.82;;;13.80;99.90;;;;;;5075902;28;20168;-74
2022/11/01 04:38:11;;;;;;;13.70;7.47;;;13.80;99.90;;;;;;5076106;28;20097;-75
2022/11/01 04:40:36;;;;;;;14.27;7.70;;;13.90;99.90;;;;;;5056083;28;20110;-74
2022/11/01 04:43:02;;;;;;;15.32;7.65;;;14.00;99.90;;;;;;5056155;28;20049;-75
2022/11/01 04:45:28;;;;;;;13.68;7.13;;;13.90;99.90;;;;;;5038286;28;20056;-74
2022/11/01 04:48:15;;;;;;;19.38;7.95;;;13.90;99.90;;;;;;5038398;28;20044;-76
2022/11/01 04:50:42;;;;;;;17.65;7.82;;;13.90;99.90;;;;;;5056403;28;20053;-76
2022/11/01 04:53:10;;;;;;;12.05;7.15;;;14.00;99.90;;;;;;5057177;28;20056;-75
2022/11/01 04:55:35;;;;;;;16.85;7.47;;;14.00;99.90;;;;;;5075526;28;20052;-74
2022/11/01 04:58:03;;;;;;;14.02;6.68;;;14.10;99.90;;;;;;5041678;28;20044;-72
2022/11/01 05:00:30;;;;;;;11.45;6.97;;;14.10;99.90;;;;;;5058249;28;20091;-76
2022/11/01 05:03:08;;;;;;;13.85;7.18;;;14.10;99.90;;;;;;5058134;28;20052;-72
2022/11/01 05:05:34;;;;;;;13.95;6.97;;;14.10;99.90;;;;;;5052677;28;20500;-76
2022/11/01 05:08:10;;;;;;;17.13;7.22;;;14.20;99.90;;;;;;5075391;28;20364;-74
2022/11/01 05:10:41;;;;;;;13.38;6.55;;;14.20;99.90;;;;;;5075227;28;20040;-74
2022/11/01 05:13:08;;;;;;;15.88;6.65;;;14.20;99.90;;;;;;5054345;28;20087;-74
2022/11/01 05:15:34;;;;;;;16.83;7.80;;;14.10;99.90;;;;;;5055383;28;20045;-74
2022/11/01 05:18:00;;;;;;;15.63;7.28;;;14.10;99.90;;;;;;5055264;28;20088;-74
2022/11/01 05:20:26;;;;;;;14.77;7.20;;;14.10;99.90;;;;;;5055749;28;20111;-75
2022/11/01 05:22:57;;;;;;;15.23;6.93;;;14.10;99.90;;;;;;5055480;28;20041;-74
2022/11/01 05:25:22;;;;;;;16.02;7.30;;;14.10;99.90;;;;;;5055456;28;20053;-74
2022/11/01 05:27:48;;;;;;;14.60;7.43;;;14.20;99.90;;;;;;5037104;28;20075;-73
2022/11/01 05:30:14;;;;;;;12.50;6.82;;;14.30;99.90;;;;;;5037005;28;20051;-73
2022/11/01 05:32:39;;;;;;;14.68;7.03;;;14.20;99.90;;;;;;5054886;28;20095;-74
2022/11/01 05:35:05;;;;;;;13.23;7.32;;;14.20;99.90;;;;;;5055269;28;20063;-73
2022/11/01 05:37:31;;;;;;;11.85;6.95;;;14.30;99.90;;;;;;5055246;28;20033;-74
2022/11/01 05:39:56;;;;;;;14.15;6.82;;;14.30;99.90;;;;;;5069315;28;20549;-75
2022/11/01 05:42:22;;;;;;;16.20;7.10;;;14.40;99.90;;;;;;5060572;28;20056;-73
2022/11/01 05:44:47;;;;;;;11.70;7.07;;;14.40;99.90;;;;;;5046440;28;20045;-74
2022/11/01 05:47:13;;;;;;;11.95;6.75;;;14.40;99.90;;;;;;5074938;28;20469;-76
2022/11/01 05:49:39;;;;;;;15.02;6.65;;;14.40;99.90;;;;;;5057695;28;20078;-73
2022/11/01 05:52:04;;;;;;;13.27;6.88;;;14.40;99.90;;;;;;5057686;28;20052;-73
2022/11/01 05:54:30;;;;;;;18.08;7.85;;;14.50;99.90;;;;;;5057434;28;20089;-74
2022/11/01 05:56:55;;;;;;;13.27;6.70;;;14.60;99.90;;;;;;5074655;28;20357;-71
2022/11/01 05:59:21;;;;;;;13.27;6.88;;;14.60;99.90;;;;;;5066931;28;20041;-76
2022/11/01 06:01:46;;;;;;;13.50;5.50;;;14.70;99.90;;;;;;5037638;28;20057;-74
2022/11/01 06:04:12;;;;;;;13.73;4.53;;;14.70;99.90;;;;;;5054986;28;20044;-74
2022/11/01 06:06:37;;;;;;;10.00;3.17;;;14.70;99.90;;;;;;5037582;28;20124;-76
2022/11/01 06:09:03;;;;;;;6.68;2.60;;;15.00;99.90;;;;;;5037058;28;20483;-74
2022/11/01 06:11:29;;;;;;;7.72;2.20;;;14.60;99.90;;;;;;5037449;28;20413;-75
2022/11/01 06:13:58;;;;;;;8.75;2.10;;;14.50;99.90;;;;;;5042157;28;20055;-73
2022/11/01 06:16:25;;;;;;;8.82;3.17;;;14.30;99.90;;;;;;5057458;28;20040;-74
2022/11/01 06:18:51;;;;;;;8.20;2.35;;;14.30;99.90;;;;;;5057207;28;20052;-74
2022/11/01 06:21:17;;;;;;;6.63;2.03;;;14.20;99.90;;;;;;5074956;28;20124;-75
2022/11/01 06:23:47;;;;;;;7.00;2.10;;;14.10;99.90;;;;;;5056966;28;20128;-75
2022/11/01 06:26:13;;;;;;;6.85;2.10;;;14.20;99.90;;;;;;5074542;28;20045;-74
2022/11/01 06:28:38;;;;;;;3.20;1.33;;;14.20;99.90;;;;;;5068868;28;20053;-73
2022/11/01 06:31:04;;;;;;;7.65;2.00;;;14.10;99.90;;;;;;5054668;28;20049;-74
2022/11/01 06:33:30;;;;;;;8.13;2.15;;;14.20;99.90;;;;;;5036928;28;20045;-77
2022/11/01 06:35:56;;;;;;;9.93;1.90;;;14.00;99.90;;;;;;5054778;28;20048;-75
2022/11/01 06:38:21;;;;;;;7.85;2.03;;;13.90;99.90;;;;;;5054971;28;20041;-74
2022/11/01 06:40:47;;;;;;;6.40;1.65;;;13.80;99.90;;;;;;5056753;28;20041;-75
2022/11/01 06:43:13;;;;;;;6.38;1.38;;;13.70;99.90;;;;;;5043964;28;20128;-75
2022/11/01 06:45:39;;;;;;;7.97;1.90;;;13.70;99.90;;;;;;5069345;28;20052;-76
2022/11/01 06:48:05;;;;;;;7.53;1.40;;;13.50;99.90;;;;;;5078324;28;20055;-75
2022/11/01 06:50:31;;;;;;;6.82;1.50;;;13.40;99.90;;;;;;5078361;28;20049;-74
2022/11/01 06:52:58;;;;;;;7.07;1.73;;;13.40;99.90;;;;;;5078204;28;20487;-75
2022/11/01 06:55:28;;;;;;;6.05;1.60;;;13.40;99.90;;;;;;5077900;28;20131;-76
2022/11/01 06:57:58;;;;;;;9.50;1.75;;;13.50;99.90;;;;;;5074560;28;20052;-75
2022/11/01 07:00:25;;;;;;;10.63;1.65;;;13.30;99.90;;;;;;5040349;28;20057;-75
2022/11/01 07:02:59;;;;;;;6.93;1.77;;;13.30;99.90;;;;;;5058077;28;20060;-74
2022/11/01 07:05:24;;;;;;;12.40;1.63;;;13.30;99.90;;;;;;5040170;28;20049;-74
2022/11/01 07:07:50;;;;;;;8.20;1.65;;;13.10;99.90;;;;;;5039573;28;20041;-74
2022/11/01 07:10:16;;;;;;;6.20;1.52;;;13.10;99.90;;;;;;5057699;28;20099;-76
2022/11/01 07:12:41;;;;;;;8.32;1.55;;;13.00;99.90;;;;;;5040648;28;20060;-75
2022/11/01 07:15:07;;;;;;;10.32;2.15;;;13.00;99.90;;;;;;5040041;28;20361;-74
2022/11/01 07:17:32;;;;;;;10.32;2.78;;;13.00;99.90;;;;;;5057507;28;20130;-74
2022/11/01 07:19:58;;;;;;;12.25;1.98;;;13.00;99.90;;;;;;5050388;28;20055;-74
2022/11/01 07:22:24;;;;;;;10.82;2.65;;;13.00;99.90;;;;;;5075151;28;20048;-74
2022/11/01 07:24:49;;;;;;;8.80;1.95;;;13.00;99.90;;;;;;5077423;28;20044;-75
2022/11/01 07:27:15;;;;;;;13.57;2.30;;;13.00;99.90;;;;;;5042627;28;20088;-76
2022/11/01 07:29:41;;;;;;;11.77;2.63;;;13.10;99.90;;;;;;5060385;28;20041;-73
2022/11/01 07:32:06;;;;;;;8.85;2.45;;;12.90;99.90;;;;;;5077351;28;20037;-75
2022/11/01 07:34:32;;;;;;;12.52;3.10;;;13.00;99.90;;;;;;5026089;28;20339;-74
2022/11/01 07:36:58;;;;;;;11.50;2.85;;;13.10;99.90;;;;;;5039848;28;20049;-74
2022/11/01 07:39:23;;;;;;;12.32;2.80;;;13.00;99.90;;;;;;5057689;28;20055;-76
2022/11/01 07:41:51;;;;;;;13.85;2.83;;;13.10;99.90;;;;;;5039562;28;20045;-74
2022/11/01 07:44:17;;;;;;;12.75;2.83;;;13.20;99.90;;;;;;5057333;28;20461;-75
2022/11/01 07:46:42;;;;;;;11.88;2.40;;;13.40;99.90;;;;;;5056957;28;20037;-75
2022/11/01 07:49:08;;;;;;;12.05;2.20;;;13.30;99.90;;;;;;5054163;28;20170;-74
2022/11/01 07:51:34;;;;;;;17.77;2.95;;;13.30;99.90;;;;;;5075917;28;20052;-75
2022/11/01 07:53:59;;;;;;;11.10;2.58;;;13.40;99.90;;;;;;5077307;28;20040;-74
2022/11/01 07:56:25;;;;;;;9.93;2.42;;;13.60;99.90;;;;;;5077120;28;20044;-75
2022/11/01 07:58:51;;;;;;;11.95;2.40;;;13.60;99.90;;;;;;5076812;28;20055;-74
2022/11/01 08:01:16;;;;;;;9.23;2.35;;;13.70;99.90;;;;;;5042323;28;20055;-76
2022/11/01 08:03:42;;;;;;;9.88;2.30;;;13.70;99.90;;;;;;5077418;28;20040;-74
2022/11/01 08:06:07;;;;;;;10.63;1.80;;;13.70;99.90;;;;;;5058884;28;20040;-76
2022/11/01 08:08:33;;;;;;;7.80;2.38;;;13.80;99.90;;;;;;5039574;28;20092;-77
2022/11/01 08:11:00;;;;;;;12.82;2.28;;;13.90;99.90;;;;;;5056517;28;20498;-75
2022/11/01 08:13:26;;;;;;;11.68;2.80;;;14.00;99.90;;;;;;5056858;28;20112;-75
2022/11/01 08:15:53;;;;;;;9.65;2.25;;;14.10;99.90;;;;;;5056535;28;20037;-74
2022/11/01 08:18:21;;;;;;;12.55;2.30;;;14.00;99.90;;;;;;5056506;28;20076;-75
2022/11/01 08:20:47;;;;;;;20.38;3.30;;;14.00;99.90;;;;;;5056797;28;20045;-74
2022/11/01 08:23:13;;;;;;;9.15;2.58;;;14.00;99.90;;;;;;5042097;28;20372;-73
2022/11/01 08:25:39;;;;;;;13.45;2.70;;;13.90;99.90;;;;;;5061119;28;20358;-75
2022/11/01 08:28:16;;;;;;;15.98;3.00;;;14.10;99.90;;;;;;5038764;28;20589;-73
2022/11/01 08:30:43;;;;;;;14.50;3.00;;;14.10;99.90;;;;;;5038476;28;20124;-74
2022/11/01 08:33:09;;;;;;;12.55;3.53;;;14.20;99.90;;;;;;5056827;28;20386;-75
2022/11/01 08:35:35;;;;;;;14.52;2.95;;;14.20;99.90;;;;;;5056281;28;20056;-74
2022/11/01 08:38:02;;;;;;;19.88;3.38;;;14.20;99.90;;;;;;5055790;28;20048;-76
2022/11/01 08:40:28;;;;;;;13.50;3.55;;;14.00;99.90;;;;;;5070556;28;20048;-75
2022/11/01 08:42:55;;;;;;;22.27;4.45;;;14.30;99.90;;;;;;5075625;28;20044;-76
2022/11/01 08:45:20;;;;;;;15.90;3.47;;;14.00;99.90;;;;;;5076016;28;20051;-76
2022/11/01 08:47:46;;;;;;;13.43;3.30;;;14.00;99.90;;;;;;5075773;28;20437;-74
2022/11/01 08:50:14;;;;;;;21.88;3.50;;;14.00;99.90;;;;;;5076095;28;20371;-74
2022/11/01 08:52:40;;;;;;;17.38;4.07;;;14.00;99.90;;;;;;5075708;28;20080;-75
2022/11/01 08:55:08;;;;;;;21.63;4.55;;;14.00;99.90;;;;;;5075634;28;20467;-75
2022/11/01 08:57:34;;;;;;;20.02;4.30;;;14.00;99.90;;;;;;5057688;28;20102;-73
2022/11/01 08:59:59;;;;;;;19.00;3.28;;;14.20;99.90;;;;;;5037724;28;20060;-74
2022/11/01 09:02:25;;;;;;;20.10;4.03;;;14.20;99.90;;;;;;5055123;28;20460;-75
2022/11/01 09:04:51;;;;;;;30.95;4.15;;;14.20;99.90;;;;;;5055006;28;20044;-74
2022/11/01 09:07:17;;;;;;;19.52;3.95;;;14.30;99.90;;;;;;5055491;28;20045;-76
2022/11/01 09:09:43;;;;;;;20.90;4.25;;;14.40;99.90;;;;;;5055682;28;20378;-78
2022/11/01 09:12:11;;;;;;;22.70;4.50;;;14.40;99.90;;;;;;5056110;28;20044;-75
2022/11/01 09:14:36;;;;;;;48.28;4.68;;;14.50;99.90;;;;;;5055405;28;20488;-74
2022/11/01 09:17:02;;;;;;;21.00;4.57;;;14.50;99.90;;;;;;5047798;28;20045;-74
2022/11/01 09:19:28;;;;;;;24.23;4.18;;;14.40;99.90;;;;;;5075153;28;20431;-75
2022/11/01 09:21:53;;;;;;;23.92;4.03;;;14.40;99.90;;;;;;5075431;28;20501;-74
2022/11/01 09:24:19;;;;;;;22.13;4.85;;;14.40;99.90;;;;;;5075212;28;20452;-76
2022/11/01 09:26:44;;;;;;;22.13;3.95;;;14.30;99.90;;;;;;5075070;28;20426;-74
2022/11/01 09:29:10;;;;;;;19.50;3.90;;;14.40;99.90;;;;;;5040934;28;20059;-74
2022/11/01 09:31:36;;;;;;;21.45;4.95;;;14.30;99.90;;;;;;5065679;28;20060;-76
2022/11/01 09:34:02;;;;;;;22.73;4.10;;;14.30;99.90;;;;;;5054556;28;20037;-74
2022/11/01 09:36:28;;;;;;;20.15;4.35;;;14.40;99.90;;;;;;5037972;28;20048;-74
2022/11/01 09:38:55;;;;;;;21.55;4.03;;;14.40;99.90;;;;;;5054987;28;20044;-74
2022/11/01 09:41:33;;;;;;;20.17;3.92;;;14.50;99.90;;;;;;5037374;28;20059;-74
2022/11/01 09:44:00;;;;;;;19.73;3.97;;;14.50;99.90;;;;;;5055085;28;20465;-73
2022/11/01 09:46:30;;;;;;;14.10;3.60;;;14.50;99.90;;;;;;5064031;28;20036;-75
2022/11/01 09:48:59;;;;;;;16.05;4.05;;;14.60;99.90;;;;;;5074829;28;20063;-73
2022/11/01 09:51:26;;;;;;;27.92;5.45;;;14.40;99.90;;;;;;5074918;28;20060;-75
2022/11/01 09:53:54;;;;;;;18.17;3.80;;;14.40;99.90;;;;;;5075238;28;20079;-74
2022/11/01 09:56:23;;;;;;;21.38;3.97;;;14.50;99.90;;;;;;5075062;28;20045;-75
2022/11/01 09:59:26;;;;;;;15.68;3.90;;;14.50;99.90;;;;;;5074549;28;20056;-75
2022/11/01 10:02:17;;;;;;;21.65;4.03;;;14.50;99.90;;;;;;5058987;28;20495;-74
2022/11/01 10:05:13;;;;;;;23.15;4.80;;;14.40;99.90;;;;;;5054829;28;20051;-75
2022/11/01 10:08:02;;;;;;;19.60;4.15;;;14.40;99.90;;;;;;5054992;28;20049;-75
2022/11/01 10:10:37;;;;;;;19.50;4.03;;;14.40;99.90;;;;;;5055306;28;20053;-74
2022/11/01 10:13:24;;;;;;;16.10;4.68;;;14.40;99.90;;;;;;5054596;28;20041;-75
2022/11/01 10:16:07;;;;;;;20.08;3.97;;;14.40;99.90;;;;;;5065916;28;20075;-75
2022/11/01 10:18:54;;;;;;;18.63;3.88;;;14.50;99.90;;;;;;5079218;28;20368;-74
2022/11/01 10:21:21;;;;;;;22.83;3.92;;;14.60;99.90;;;;;;5078784;28;20049;-75
2022/11/01 10:23:52;;;;;;;18.80;3.90;;;14.70;99.90;;;;;;5077026;28;20105;-75
2022/11/01 10:26:29;;;;;;;20.08;3.92;;;14.70;99.90;;;;;;5058346;28;20523;-74
2022/11/01 10:29:32;;;;;;;19.15;3.60;;;14.80;99.90;;;;;;5069429;28;20095;-76
2022/11/01 10:31:59;;;;;;;20.63;4.65;;;14.90;99.90;;;;;;5078391;28;20109;-75
2022/11/01 10:34:29;;;;;;;24.15;4.70;;;15.00;99.90;;;;;;5078105;28;20052;-74
2022/11/01 10:37:04;;;;;;;18.52;4.05;;;15.10;99.90;;;;;;5078463;28;20044;-76
2022/11/01 10:39:33;;;;;;;19.65;4.38;;;15.20;99.90;;;;;;5078060;28;20518;-75
2022/11/01 10:42:08;;;;;;;19.02;4.20;;;15.40;99.90;;;;;;5078538;28;20353;-76
2022/11/01 10:44:40;;;;;;;17.80;4.38;;;15.50;99.90;;;;;;5059538;28;20060;-75
2022/11/01 10:47:13;;;;;;;16.33;3.83;;;15.50;99.90;;;;;;5057958;28;20063;-75
2022/11/01 10:49:46;;;;;;;19.83;4.20;;;15.60;99.90;;;;;;5058112;28;20072;-74
2022/11/01 10:52:16;;;;;;;18.50;3.83;;;15.50;99.90;;;;;;5041365;28;20048;-75
2022/11/01 10:54:43;;;;;;;22.77;4.63;;;15.50;99.90;;;;;;5057758;28;20048;-73
2022/11/01 10:57:44;;;;;;;14.95;3.70;;;15.50;99.90;;;;;;5058644;28;20140;-74
2022/11/01 11:00:16;;;;;;;21.70;3.63;;;15.50;99.90;;;;;;4975015;28;20557;-74
2022/11/01 11:02:53;;;;;;;21.30;4.13;;;15.40;99.90;;;;;;5070157;28;20102;-74
2022/11/01 11:05:19;;;;;;;18.67;3.72;;;15.50;99.90;;;;;;5077892;28;20127;-73
2022/11/01 11:07:45;;;;;;;18.50;3.80;;;15.50;99.90;;;;;;5077675;28;20353;-75
2022/11/01 11:10:26;;;;;;;17.77;3.78;;;15.50;99.90;;;;;;5077626;28;20048;-75
2022/11/01 11:13:05;;;;;;;18.42;3.95;;;15.40;99.90;;;;;;5077841;28;20040;-74
2022/11/01 11:16:05;;;;;;;20.42;3.60;;;15.30;99.90;;;;;;5063759;28;20111;-76
2022/11/01 11:18:41;;;;;;;14.88;3.42;;;15.30;99.90;;;;;;5036360;28;20075;-75
2022/11/01 11:21:10;;;;;;;21.25;4.50;;;15.30;99.90;;;;;;5057611;28;20045;-76
2022/11/01 11:23:45;;;;;;;16.25;3.33;;;15.20;99.90;;;;;;5057260;28;20045;-75
2022/11/01 11:26:15;;;;;;;17.55;3.65;;;15.40;99.90;;;;;;5039617;28;20049;-75
2022/11/01 11:28:46;;;;;;;19.50;4.28;;;15.40;99.90;;;;;;5057313;28;20044;-76
2022/11/01 11:31:27;;;;;;;18.00;3.97;;;15.50;99.90;;;;;;5077735;28;20049;-76
2022/11/01 11:34:23;;;;;;;18.90;3.67;;;15.60;99.90;;;;;;5077127;28;20052;-74
2022/11/01 11:36:50;;;;;;;17.48;4.55;;;15.60;99.90;;;;;;5060286;28;20123;-75
2022/11/01 11:39:31;;;;;;;15.13;3.50;;;15.60;99.90;;;;;;5077006;28;20045;-74
2022/11/01 11:42:17;;;;;;;22.73;4.65;;;15.70;99.90;;;;;;5077181;28;20052;-74
2022/11/01 11:44:52;;;;;;;18.75;3.85;;;15.80;99.90;;;;;;5047808;28;20127;-75
2022/11/01 11:47:27;;;;;;;17.58;4.13;;;15.80;99.90;;;;;;5056711;28;20136;-75
2022/11/01 11:49:55;;;;;;;19.15;3.72;;;15.80;99.90;;;;;;5056817;28;20063;-75
2022/11/01 11:52:29;;;;;;;16.48;3.97;;;15.80;99.90;;;;;;5039861;28;20052;-74
2022/11/01 11:54:55;;;;;;;17.10;3.97;;;15.80;99.90;;;;;;5057008;28;20060;-75
2022/11/01 11:57:21;;;;;;;18.45;3.83;;;15.70;99.90;;;;;;5056718;28;20056;-74
2022/11/01 11:59:53;;;;;;;15.57;4.10;;;15.70;99.90;;;;;;5156776;22;20092;-77
2022/11/01 12:02:26;;;;;;;18.95;4.13;;;15.70;99.90;;;;;;5019123;28;20056;-74
2022/11/01 12:04:56;;;;;;;22.80;3.95;;;15.70;99.90;;;;;;5036984;28;20144;-75
2022/11/01 12:07:24;;;;;;;21.65;3.78;;;15.70;99.90;;;;;;5019948;28;20050;-74
2022/11/01 12:09:50;;;;;;;18.25;3.45;;;15.70;99.90;;;;;;5036911;28;20053;-77
2022/11/01 12:12:28;;;;;;;18.05;3.45;;;15.70;99.90;;;;;;5036591;28;20038;-74
2022/11/01 12:14:55;;;;;;;16.75;3.50;;;15.70;99.90;;;;;;5019655;28;20057;-74
2022/11/01 12:17:42;;;;;;;12.27;3.30;;;15.70;99.90;;;;;;5035860;28;20046;-75
2022/11/01 12:20:08;;;;;;;16.17;3.05;;;15.80;99.90;;;;;;5016782;28;20061;-75
2022/11/01 12:22:36;;;;;;;15.18;3.40;;;15.90;99.90;;;;;;5016688;28;20068;-77
2022/11/01 12:25:12;;;;;;;11.30;2.90;;;16.10;99.90;;;;;;5016455;28;20050;-73
2022/11/01 12:27:40;;;;;;;16.52;3.28;;;16.00;99.90;;;;;;5016799;28;20120;-76
2022/11/01 12:30:14;;;;;;;17.25;3.97;;;16.10;99.90;;;;;;4999302;28;20128;-78
2022/11/01 12:32:57;;;;;;;17.90;2.85;;;16.20;99.90;;;;;;5020583;28;20107;-74
2022/11/01 12:35:33;;;;;;;15.27;3.70;;;16.30;99.90;;;;;;5036289;28;20137;-75
2022/11/01 12:38:19;;;;;;;16.63;3.53;;;16.30;99.90;;;;;;5036392;28;20465;-75
2022/11/01 12:40:49;;;;;;;16.92;3.38;;;16.30;99.90;;;;;;5002197;28;20480;-74
2022/11/01 12:43:32;;;;;;;10.18;2.60;;;16.20;99.90;;;;;;5018340;28;20045;-74
2022/11/01 12:46:09;;;;;;;15.48;3.17;;;16.20;99.90;;;;;;5035831;28;20060;-76
2022/11/01 12:48:46;;;;;;;9.93;2.85;;;16.30;99.90;;;;;;5035926;28;20179;-74
2022/11/01 12:51:19;;;;;;;13.05;2.90;;;16.30;99.90;;;;;;5036085;28;20045;-77
2022/11/01 12:54:12;;;;;;;12.32;2.90;;;16.30;99.90;;;;;;5035474;28;20083;-76
2022/11/01 12:56:38;;;;;;;13.98;3.13;;;16.30;99.90;;;;;;5035770;28;20353;-74
2022/11/01 12:59:05;;;;;;;13.60;3.08;;;16.30;99.90;;;;;;5036876;28;20128;-76